Time;durP1;ratioP1;P1;durP2;ratioP2;P2;SDS_P1;SDS_P2;PMS_P1;PMS_P2;Temp;Humidity;BMP_temperature;BMP_pressure;BME280_temperature;BME280_humidity;BME280_pressure;Samples;Min_cycle;Max_cycle;Signal;HPM_P1;HPM_P2
2024/03/12 00:01:58;;;;;;;52.20;45.40;;;;;;;10.13;66.84;99781.24;110452;1279;21844;-80
2024/03/12 00:05:11;;;;;;;49.20;44.00;;;;;;;10.11;67.13;99784.95;110572;1279;21923;-79
2024/03/12 00:07:55;;;;;;;47.20;42.30;;;;;;;10.13;66.87;99783.85;110494;1279;21953;-79
2024/03/12 00:10:39;;;;;;;49.90;44.60;;;;;;;10.17;67.13;99781.79;110184;1282;21794;-80
2024/03/12 00:13:28;;;;;;;47.40;42.30;;;;;;;10.21;66.92;99779.94;109956;1283;21802;-78
2024/03/12 00:16:24;;;;;;;46.30;41.60;;;;;;;10.22;66.73;99785.53;109964;1285;21953;-78
2024/03/12 00:19:16;;;;;;;57.00;51.10;;;;;;;10.14;66.74;99787.89;109959;1286;21793;-80
2024/03/12 00:22:16;;;;;;;54.10;48.50;;;;;;;10.13;66.90;99786.16;110091;1283;21832;-81
2024/03/12 00:25:01;;;;;;;54.50;48.80;;;;;;;10.19;66.75;99787.67;109978;1288;21783;-81
2024/03/12 00:27:43;;;;;;;55.00;49.40;;;;;;;10.24;66.73;99785.66;110023;1281;21931;-81
2024/03/12 00:30:14;;;;;;;75.60;67.70;;;;;;;10.31;66.69;99783.38;110299;1277;21906;-82
2024/03/12 00:32:49;;;;;;;59.70;53.50;;;;;;;10.35;66.38;99784.68;110563;1276;21942;-82
2024/03/12 00:35:18;;;;;;;64.80;58.30;;;;;;;10.35;66.36;99786.95;110719;1274;21838;-79
2024/03/12 00:37:54;;;;;;;67.30;60.20;;;;;;;10.25;66.49;99789.64;110667;1275;21911;-81
2024/03/12 00:40:34;;;;;;;59.70;53.60;;;;;;;10.20;66.63;99790.92;110300;1280;21843;-82
2024/03/12 00:43:05;;;;;;;59.80;53.20;;;;;;;10.18;66.48;99791.59;110529;1274;21852;-82
2024/03/12 00:45:39;;;;;;;57.00;49.10;;;;;;;10.19;66.35;99793.46;110829;1274;21818;-82
2024/03/12 00:48:15;;;;;;;51.50;46.10;;;;;;;10.17;66.54;99792.54;110861;1275;21824;-83
2024/03/12 00:50:46;;;;;;;52.60;44.80;;;;;;;10.16;66.31;99792.08;110733;1274;21861;-82
2024/03/12 00:53:15;;;;;;;51.70;45.80;;;;;;;10.16;66.46;99790.86;110805;1272;21773;-81
2024/03/12 00:55:47;;;;;;;50.90;44.80;;;;;;;10.11;66.39;99788.80;110801;1274;21825;-82
2024/03/12 00:58:19;;;;;;;54.30;46.40;;;;;;;10.05;66.62;99784.00;111114;1270;22356;-81
2024/03/12 01:00:52;;;;;;;51.00;45.50;;;;;;;10.04;66.90;99783.71;111567;1268;21809;-79
2024/03/12 01:03:23;;;;;;;51.50;46.00;;;;;;;10.09;66.76;99781.04;110624;1276;21834;-80
2024/03/12 01:05:53;;;;;;;54.10;47.50;;;;;;;10.12;66.44;99781.88;110546;1274;21841;-81
2024/03/12 01:08:23;;;;;;;54.60;44.80;;;;;;;10.09;66.77;99785.26;110290;1276;21928;-81
2024/03/12 01:10:53;;;;;;;54.00;48.30;;;;;;;10.06;66.51;99787.39;110485;1281;22319;-81
2024/03/12 01:13:24;;;;;;;64.30;50.60;;;;;;;10.04;66.64;99784.20;110228;1281;22530;-80
2024/03/12 01:15:54;;;;;;;55.60;49.60;;;;;;;10.03;66.84;99783.09;110015;1284;21841;-77
2024/03/12 01:18:23;;;;;;;51.10;45.70;;;;;;;9.96;66.62;99783.24;110041;1283;21842;-81
2024/03/12 01:20:53;;;;;;;49.70;44.40;;;;;;;9.95;66.59;99781.35;110010;1284;21796;-80
2024/03/12 01:23:22;;;;;;;55.60;47.60;;;;;;;9.97;66.78;99777.70;110067;1284;22309;-82
2024/03/12 01:25:53;;;;;;;52.20;46.60;;;;;;;9.97;66.77;99776.30;110072;1284;21827;-81
2024/03/12 01:28:23;;;;;;;51.20;45.50;;;;;;;9.98;66.73;99775.75;110048;1281;21827;-78
2024/03/12 01:30:53;;;;;;;50.30;44.80;;;;;;;9.97;66.73;99773.18;110191;1281;21916;-77
2024/03/12 01:33:23;;;;;;;48.60;43.20;;;;;;;9.96;66.70;99776.89;110248;1281;21922;-80
2024/03/12 01:36:05;;;;;;;51.20;45.20;;;;;;;9.94;66.78;99773.02;110187;1281;22452;-79
2024/03/12 01:38:34;;;;;;;50.10;44.90;;;;;;;9.87;66.92;99771.48;110308;1276;22258;-80
2024/03/12 01:41:06;;;;;;;49.40;44.10;;;;;;;9.85;67.19;99771.07;110953;1270;22202;-77
2024/03/12 01:43:35;;;;;;;51.50;46.20;;;;;;;9.85;67.09;99771.77;111227;1270;21850;-81
2024/03/12 01:46:07;;;;;;;52.20;47.00;;;;;;;9.85;67.27;99767.05;111578;1270;21809;-78
2024/03/12 01:48:38;;;;;;;60.60;55.00;;;;;;;9.89;67.48;99766.40;111312;1270;21906;-80
2024/03/12 01:51:07;;;;;;;66.30;59.30;;;;;;;9.88;67.52;99764.68;111408;1270;21839;-80
2024/03/12 01:53:38;;;;;;;60.00;54.10;;;;;;;9.89;67.61;99764.77;111530;1270;22177;-79
2024/03/12 01:56:07;;;;;;;54.50;48.80;;;;;;;9.90;67.78;99767.87;111430;1268;21996;-79
2024/03/12 01:58:37;;;;;;;54.20;48.80;;;;;;;9.90;67.67;99769.48;110920;1274;22188;-78
2024/03/12 02:01:06;;;;;;;53.20;47.60;;;;;;;9.90;67.71;99774.20;110762;1274;22301;-82
2024/03/12 02:03:36;;;;;;;55.10;47.80;;;;;;;9.89;67.57;99777.77;110660;1274;22300;-77
2024/03/12 02:06:07;;;;;;;52.90;47.30;;;;;;;9.87;67.56;99772.01;110772;1274;21821;-78
2024/03/12 02:08:36;;;;;;;57.70;51.80;;;;;;;9.86;67.74;99775.02;110899;1274;21861;-79
2024/03/12 02:11:05;;;;;;;58.60;53.00;;;;;;;9.79;67.84;99774.02;110811;1274;21830;-80
2024/03/12 02:13:35;;;;;;;63.50;56.80;;;;;;;9.72;68.05;99774.86;110869;1274;21937;-79
2024/03/12 02:16:06;;;;;;;64.50;58.10;;;;;;;9.71;68.22;99774.09;110862;1270;21907;-80
2024/03/12 02:18:39;;;;;;;64.90;58.70;;;;;;;9.73;68.19;99777.99;111082;1270;22517;-80
2024/03/12 02:21:08;;;;;;;66.40;58.80;;;;;;;9.79;68.29;99778.20;110754;1274;21757;-80
2024/03/12 02:23:46;;;;;;;63.40;57.30;;;;;;;9.84;68.18;99777.48;110614;1276;21815;-79
2024/03/12 02:26:15;;;;;;;59.90;54.10;;;;;;;9.86;67.85;99778.89;110376;1276;22239;-80
2024/03/12 02:28:44;;;;;;;59.30;53.10;;;;;;;9.86;67.86;99780.83;110716;1276;21956;-78
2024/03/12 02:31:13;;;;;;;59.80;54.00;;;;;;;9.86;67.86;99778.19;110737;1276;21824;-79
2024/03/12 02:33:42;;;;;;;63.30;56.80;;;;;;;9.87;67.79;99775.16;110599;1276;21838;-79
2024/03/12 02:36:12;;;;;;;66.90;60.60;;;;;;;9.81;67.73;99772.80;110687;1276;22229;-80
2024/03/12 02:38:42;;;;;;;57.00;51.20;;;;;;;9.74;68.25;99773.88;110527;1276;21922;-79
2024/03/12 02:41:11;;;;;;;62.50;56.60;;;;;;;9.73;67.93;99775.17;110728;1276;22309;-79
2024/03/12 02:43:41;;;;;;;53.50;47.90;;;;;;;9.73;68.26;99778.52;110183;1282;21877;-79
2024/03/12 02:46:11;;;;;;;56.20;50.20;;;;;;;9.73;68.10;99777.77;110347;1276;22315;-79
2024/03/12 02:48:43;;;;;;;50.50;45.20;;;;;;;9.73;68.14;99778.66;110680;1276;21774;-79
2024/03/12 02:51:13;;;;;;;50.90;45.90;;;;;;;9.75;67.82;99779.41;110492;1279;21834;-80
2024/03/12 02:53:42;;;;;;;53.40;47.40;;;;;;;9.67;67.72;99780.16;110256;1279;21872;-80
2024/03/12 02:56:12;;;;;;;56.00;49.90;;;;;;;9.61;67.74;99783.66;110456;1279;21827;-81
2024/03/12 02:58:42;;;;;;;54.30;46.50;;;;;;;9.57;68.10;99785.00;110228;1279;21833;-77
2024/03/12 03:01:14;;;;;;;54.50;49.10;;;;;;;9.55;67.82;99784.42;110513;1274;21887;-78
2024/03/12 03:03:43;;;;;;;52.30;47.00;;;;;;;9.55;68.17;99785.33;110858;1273;21910;-78
2024/03/12 03:06:13;;;;;;;56.50;50.70;;;;;;;9.54;68.18;99786.61;110817;1274;22272;-78
2024/03/12 03:08:42;;;;;;;52.90;47.50;;;;;;;9.50;68.09;99786.34;110868;1270;21922;-80
2024/03/12 03:11:11;;;;;;;51.70;46.40;;;;;;;9.49;68.21;99784.36;111324;1270;21879;-80
2024/03/12 03:13:40;;;;;;;57.60;48.10;;;;;;;9.50;68.18;99787.59;111067;1270;21867;-79
2024/03/12 03:16:10;;;;;;;52.30;46.70;;;;;;;9.51;68.22;99786.64;111285;1270;21798;-78
2024/03/12 03:18:39;;;;;;;51.90;45.50;;;;;;;9.53;68.06;99787.72;110681;1274;21916;-78
2024/03/12 03:21:09;;;;;;;50.90;45.40;;;;;;;9.54;68.07;99786.09;110852;1274;21760;-78
2024/03/12 03:23:42;;;;;;;49.20;43.20;;;;;;;9.52;68.09;99782.54;110894;1275;22393;-80
2024/03/12 03:26:11;;;;;;;48.00;42.60;;;;;;;9.51;68.14;99783.13;110736;1275;22215;-78
2024/03/12 03:28:41;;;;;;;50.60;43.00;;;;;;;9.54;68.23;99780.30;110757;1275;21891;-78
2024/03/12 03:31:10;;;;;;;48.50;43.20;;;;;;;9.58;68.17;99781.03;110748;1275;21760;-79
2024/03/12 03:33:45;;;;;;;51.60;44.50;;;;;;;9.61;68.13;99783.98;110849;1274;22314;-79
2024/03/12 03:36:15;;;;;;;49.80;44.20;;;;;;;9.61;68.05;99784.70;110885;1270;21942;-80
2024/03/12 03:38:47;;;;;;;50.90;45.60;;;;;;;9.63;68.06;99782.98;111435;1270;21809;-78
2024/03/12 03:41:16;;;;;;;51.80;46.30;;;;;;;9.64;67.94;99784.61;111187;1269;21814;-80
2024/03/12 03:43:46;;;;;;;54.40;48.00;;;;;;;9.64;67.97;99784.66;110747;1275;21892;-76
2024/03/12 03:46:15;;;;;;;53.90;48.20;;;;;;;9.66;68.04;99785.58;110801;1275;21811;-80
2024/03/12 03:48:44;;;;;;;54.00;45.60;;;;;;;9.62;67.72;99790.21;110698;1275;21841;-79
2024/03/12 03:51:14;;;;;;;55.00;48.10;;;;;;;9.57;67.85;99789.91;110270;1279;22341;-79
2024/03/12 03:53:43;;;;;;;53.50;47.90;;;;;;;9.54;67.90;99793.64;110385;1279;22311;-79
2024/03/12 03:56:15;;;;;;;51.30;45.40;;;;;;;9.55;68.15;99789.87;110395;1279;21926;-80
2024/03/12 03:58:45;;;;;;;53.50;47.70;;;;;;;9.56;68.12;99789.11;110480;1279;22005;-80
2024/03/12 04:01:15;;;;;;;60.90;49.90;;;;;;;9.58;68.13;99787.08;110450;1274;21850;-80
2024/03/12 04:03:44;;;;;;;63.10;53.80;;;;;;;9.59;68.12;99786.64;110464;1280;21831;-80
2024/03/12 04:06:17;;;;;;;59.00;52.90;;;;;;;9.59;67.77;99785.54;110209;1279;22212;-79
2024/03/12 04:08:50;;;;;;;60.50;51.70;;;;;;;9.55;67.64;99785.50;110704;1274;21814;-79
2024/03/12 04:11:20;;;;;;;66.40;54.70;;;;;;;9.51;67.94;99787.05;110889;1274;21769;-79
2024/03/12 04:13:54;;;;;;;60.90;54.20;;;;;;;9.48;67.98;99786.36;110679;1274;21813;-81
2024/03/12 04:16:27;;;;;;;67.10;56.90;;;;;;;9.48;68.07;99789.46;110723;1268;21808;-79
2024/03/12 04:18:59;;;;;;;68.10;55.90;;;;;;;9.51;68.07;99787.52;110595;1276;21898;-79
2024/03/12 04:21:28;;;;;;;72.30;55.60;;;;;;;9.52;67.96;99786.76;110243;1278;21817;-80
2024/03/12 04:23:57;;;;;;;62.10;52.00;;;;;;;9.45;68.03;99789.05;110425;1278;21835;-79
2024/03/12 04:26:28;;;;;;;66.70;53.90;;;;;;;9.43;68.07;99788.32;110051;1284;22532;-81
2024/03/12 04:28:58;;;;;;;69.60;56.20;;;;;;;9.38;68.22;99792.17;110017;1284;21988;-82
2024/03/12 04:31:31;;;;;;;83.70;58.50;;;;;;;9.37;67.99;99794.90;110098;1284;22304;-84
2024/03/12 04:34:03;;;;;;;78.30;63.80;;;;;;;9.36;67.98;99797.59;110047;1283;22463;-82
2024/03/12 04:36:32;;;;;;;82.30;59.30;;;;;;;9.36;67.91;99803.92;110200;1283;21822;-81
2024/03/12 04:41:51;;;;;;;68.90;58.10;;;;;;;9.32;68.30;99803.90;110573;1278;22372;-81
2024/03/12 04:44:20;;;;;;;70.10;56.30;;;;;;;9.31;68.25;99805.86;110567;1275;22277;-82
2024/03/12 04:46:49;;;;;;;64.50;54.20;;;;;;;9.31;68.38;99809.42;110702;1275;22309;-78
2024/03/12 04:49:19;;;;;;;71.20;55.30;;;;;;;9.30;68.50;99809.47;110806;1275;21910;-79
2024/03/12 04:51:50;;;;;;;74.90;59.30;;;;;;;9.34;68.36;99810.05;110568;1276;21934;-81
2024/03/12 04:54:20;;;;;;;79.80;60.90;;;;;;;9.38;68.36;99810.96;110626;1276;21903;-81
2024/03/12 04:56:52;;;;;;;70.00;56.60;;;;;;;9.40;68.36;99812.04;110649;1275;21895;-79
2024/03/12 04:59:21;;;;;;;65.10;52.20;;;;;;;9.42;68.26;99812.84;110736;1275;22254;-79
2024/03/12 05:01:52;;;;;;;58.90;50.50;;;;;;;9.45;68.16;99815.61;110690;1276;21817;-78
2024/03/12 05:04:22;;;;;;;61.00;48.50;;;;;;;9.46;67.95;99819.22;110230;1281;21902;-77
2024/03/12 05:06:52;;;;;;;56.80;49.70;;;;;;;9.44;68.07;99821.44;110148;1281;21811;-80
2024/03/12 05:09:23;;;;;;;59.60;48.60;;;;;;;9.43;67.84;99824.66;110190;1276;22288;-77
2024/03/12 05:11:53;;;;;;;61.00;52.50;;;;;;;9.51;68.22;99825.33;110678;1276;21867;-77
2024/03/12 05:14:23;;;;;;;64.30;52.00;;;;;;;9.46;68.07;99827.46;110633;1276;22384;-74
2024/03/12 05:16:54;;;;;;;63.20;53.30;;;;;;;9.46;68.08;99827.80;110509;1276;21830;-78
2024/03/12 05:19:24;;;;;;;66.40;55.70;;;;;;;9.45;68.04;99828.36;110480;1276;22720;-77
2024/03/12 05:21:53;;;;;;;60.10;51.90;;;;;;;9.45;67.96;99830.86;110744;1270;22276;-77
2024/03/12 05:24:24;;;;;;;64.00;53.10;;;;;;;9.44;67.96;99831.13;111018;1270;21769;-77
2024/03/12 05:26:54;;;;;;;60.50;51.80;;;;;;;9.48;68.18;99833.61;111039;1270;22275;-76
2024/03/12 05:29:33;;;;;;;57.10;50.80;;;;;;;9.51;67.98;99841.30;111355;1270;22230;-75
2024/03/12 05:32:17;;;;;;;59.50;51.40;;;;;;;9.50;67.90;99840.15;111347;1270;21919;-79
2024/03/12 05:34:52;;;;;;;65.20;53.80;;;;;;;9.51;67.85;99844.30;111300;1270;22241;-78
2024/03/12 05:37:40;;;;;;;67.80;56.40;;;;;;;9.49;67.99;99847.98;111155;1270;22320;-79
2024/03/12 05:40:16;;;;;;;67.50;57.10;;;;;;;9.47;67.98;99848.27;111396;1269;21862;-79
2024/03/12 05:48:21;;;;;;;68.90;55.90;;;;;;;9.45;68.07;99853.87;111173;1270;21796;-78
2024/03/12 05:50:51;;;;;;;75.10;57.90;;;;;;;9.43;68.00;99854.18;110688;1274;21860;-78
2024/03/12 05:53:21;;;;;;;80.90;57.70;;;;;;;9.44;68.17;99857.80;110661;1276;21819;-77
2024/03/12 05:55:50;;;;;;;74.30;60.50;;;;;;;9.46;68.27;99859.44;110629;1276;21915;-77
2024/03/12 05:58:21;;;;;;;71.00;58.00;;;;;;;9.48;68.18;99862.64;110651;1276;21807;-76
2024/03/12 06:00:50;;;;;;;76.60;60.90;;;;;;;9.43;68.14;99860.16;110647;1276;21818;-79
2024/03/12 06:03:21;;;;;;;71.70;59.60;;;;;;;9.39;68.20;99859.23;110636;1276;21837;-77
2024/03/12 06:05:50;;;;;;;83.70;65.50;;;;;;;9.40;68.24;99860.19;110686;1276;21852;-78
2024/03/12 06:08:21;;;;;;;87.50;66.90;;;;;;;9.39;68.33;99859.25;110864;1270;21921;-79
2024/03/12 06:10:51;;;;;;;85.30;65.40;;;;;;;9.45;68.44;99860.02;110652;1275;21825;-79
2024/03/12 06:13:22;;;;;;;86.90;66.10;;;;;;;9.45;68.44;99860.23;110486;1274;21829;-80
2024/03/12 06:15:51;;;;;;;79.70;64.20;;;;;;;9.48;68.58;99861.94;110719;1274;21817;-77
2024/03/12 06:18:23;;;;;;;80.10;62.00;;;;;;;9.52;68.46;99863.94;110725;1275;21963;-79
2024/03/12 06:20:52;;;;;;;83.90;61.10;;;;;;;9.55;68.18;99867.75;110678;1274;21818;-79
2024/03/12 06:23:22;;;;;;;82.20;63.20;;;;;;;9.51;68.21;99872.26;110681;1275;21814;-77
2024/03/12 06:25:53;;;;;;;81.90;62.00;;;;;;;9.50;68.37;99875.31;110869;1274;21838;-79
2024/03/12 06:28:27;;;;;;;75.80;58.90;;;;;;;9.53;68.52;99875.40;110910;1270;22248;-77
2024/03/12 06:30:57;;;;;;;78.70;58.80;;;;;;;9.53;68.28;99875.60;111052;1270;21785;-79
2024/03/12 06:33:26;;;;;;;77.00;59.40;;;;;;;9.51;68.42;99876.30;111050;1270;22291;-78
2024/03/12 06:35:56;;;;;;;75.40;56.00;;;;;;;9.50;68.52;99880.72;111308;1270;21792;-77
2024/03/12 06:38:25;;;;;;;75.80;60.30;;;;;;;9.52;68.42;99881.87;111154;1270;22188;-78
2024/03/12 06:40:55;;;;;;;83.10;63.80;;;;;;;9.53;68.46;99882.98;111342;1270;22122;-78
2024/03/12 06:43:24;;;;;;;74.30;59.40;;;;;;;9.52;68.41;99887.31;111099;1270;21797;-78
2024/03/12 06:45:53;;;;;;;78.40;59.60;;;;;;;9.56;68.56;99888.23;111389;1269;21888;-80
2024/03/12 06:48:22;;;;;;;81.30;59.90;;;;;;;9.65;68.71;99892.14;111481;1270;21834;-78
2024/03/12 06:50:52;;;;;;;84.00;62.60;;;;;;;9.71;68.39;99895.75;111385;1268;21888;-76
2024/03/12 06:53:24;;;;;;;80.60;59.30;;;;;;;9.77;68.13;99897.61;111367;1270;22524;-80
2024/03/12 06:55:54;;;;;;;80.50;61.50;;;;;;;9.75;68.18;99896.14;111400;1269;21813;-79
2024/03/12 06:58:25;;;;;;;101.50;88.20;;;;;;;9.72;67.90;99897.07;111466;1270;22268;-79
2024/03/12 07:00:55;;;;;;;83.50;65.40;;;;;;;9.67;68.14;99896.02;111394;1269;22241;-77
2024/03/12 07:03:29;;;;;;;79.00;61.70;;;;;;;9.67;68.10;99895.86;110812;1274;22222;-79
2024/03/12 07:05:58;;;;;;;86.40;64.10;;;;;;;9.67;68.12;99897.80;110708;1274;21818;-78
2024/03/12 07:08:29;;;;;;;85.70;63.80;;;;;;;9.70;68.15;99897.92;110716;1275;21831;-79
2024/03/12 07:10:58;;;;;;;78.10;62.10;;;;;;;9.74;68.17;99901.17;110661;1275;21922;-78
2024/03/12 07:13:29;;;;;;;83.00;59.20;;;;;;;9.75;67.99;99899.51;110718;1275;21814;-82
2024/03/12 07:16:00;;;;;;;82.30;59.90;;;;;;;9.76;68.30;99901.70;110780;1275;21916;-80
2024/03/12 07:18:29;;;;;;;86.80;63.60;;;;;;;9.84;68.09;99904.99;110289;1281;21815;-81
2024/03/12 07:20:59;;;;;;;72.60;59.50;;;;;;;9.87;67.81;99910.17;110291;1278;21766;-80
2024/03/12 07:23:29;;;;;;;75.70;59.40;;;;;;;9.89;67.99;99907.75;110480;1277;21829;-80
2024/03/12 07:26:00;;;;;;;79.70;59.00;;;;;;;9.92;67.76;99908.42;110077;1282;21874;-82
2024/03/12 07:28:30;;;;;;;83.50;60.40;;;;;;;9.94;67.48;99911.77;110224;1282;21908;-79
2024/03/12 07:31:02;;;;;;;80.30;58.90;;;;;;;9.97;67.69;99915.95;110167;1282;21826;-81
2024/03/12 07:33:32;;;;;;;73.80;55.60;;;;;;;10.01;67.44;99920.43;110068;1282;21910;-83
2024/03/12 07:36:04;;;;;;;81.30;65.50;;;;;;;10.02;67.37;99923.69;110219;1276;21860;-80
2024/03/12 07:38:33;;;;;;;80.60;65.70;;;;;;;10.02;67.24;99924.86;110216;1280;21902;-80
2024/03/12 07:41:03;;;;;;;79.50;62.90;;;;;;;10.04;67.22;99925.47;110417;1274;21867;-81
2024/03/12 07:43:32;;;;;;;78.80;62.20;;;;;;;10.08;67.39;99925.73;110282;1276;22302;-80
2024/03/12 07:46:02;;;;;;;74.80;59.40;;;;;;;10.11;67.05;99927.08;110618;1267;22229;-80
2024/03/12 07:48:31;;;;;;;79.60;63.60;;;;;;;10.14;67.04;99929.13;110203;1281;21805;-80
2024/03/12 07:51:01;;;;;;;83.10;64.30;;;;;;;10.14;66.75;99929.62;110063;1280;21846;-80
2024/03/12 07:53:31;;;;;;;82.70;63.80;;;;;;;10.12;66.97;99933.86;110106;1282;22003;-79
2024/03/12 07:56:05;;;;;;;84.40;61.80;;;;;;;10.09;66.92;99934.29;110154;1278;21831;-81
2024/03/12 07:58:35;;;;;;;84.40;62.60;;;;;;;10.05;66.94;99935.98;110574;1278;21871;-80
2024/03/12 08:01:04;;;;;;;77.70;61.00;;;;;;;10.04;67.12;99929.70;110511;1277;21884;-81
2024/03/12 08:03:36;;;;;;;83.90;62.40;;;;;;;10.04;67.40;99931.96;110557;1278;21848;-82
2024/03/12 08:06:06;;;;;;;85.20;63.40;;;;;;;10.04;67.34;99933.53;110805;1271;21758;-79
2024/03/12 08:08:36;;;;;;;79.10;61.50;;;;;;;10.06;67.15;99933.08;111042;1268;21785;-80
2024/03/12 08:11:05;;;;;;;76.40;58.30;;;;;;;10.07;67.16;99933.52;111060;1271;22156;-84
2024/03/12 08:13:35;;;;;;;87.70;58.70;;;;;;;10.07;67.09;99936.85;110931;1271;200493;-83
2024/03/12 08:16:04;;;;;;;75.10;55.90;;;;;;;10.08;67.53;99937.49;110505;1276;21852;-83
2024/03/12 08:18:35;;;;;;;98.80;67.50;;;;;;;10.15;67.25;99937.67;110657;1276;22663;-85
2024/03/12 08:21:05;;;;;;;74.70;58.70;;;;;;;10.18;66.87;99942.17;110712;1275;21868;-82
2024/03/12 08:23:34;;;;;;;80.30;60.60;;;;;;;10.15;66.72;99943.45;110500;1279;21823;-81
2024/03/12 08:26:07;;;;;;;80.50;57.80;;;;;;;10.13;66.84;99945.92;110040;1284;21877;-80
2024/03/12 08:28:37;;;;;;;76.80;54.30;;;;;;;10.15;66.96;99951.61;110083;1283;21829;-80
2024/03/12 08:31:07;;;;;;;74.80;55.90;;;;;;;10.13;66.84;99952.06;110084;1283;21836;-80
2024/03/12 08:33:47;;;;;;;78.20;56.60;;;;;;;10.09;66.94;99950.45;110210;1279;21871;-80
2024/03/12 08:36:16;;;;;;;67.40;53.60;;;;;;;10.14;67.12;99952.89;110444;1279;21927;-79
2024/03/12 08:38:46;;;;;;;73.40;55.30;;;;;;;10.13;66.87;99953.33;110222;1279;21864;-79
2024/03/12 08:41:16;;;;;;;75.80;54.60;;;;;;;10.14;67.23;99952.90;110290;1276;21778;-78
2024/03/12 08:43:45;;;;;;;67.60;51.60;;;;;;;10.17;66.89;99956.71;110865;1271;22208;-79
2024/03/12 08:46:16;;;;;;;67.40;50.40;;;;;;;10.21;66.70;99956.95;111021;1271;21842;-79
2024/03/12 08:48:45;;;;;;;71.90;53.10;;;;;;;10.20;66.92;99958.30;111018;1271;21904;-86
2024/03/12 08:51:14;;;;;;;66.20;49.70;;;;;;;10.19;67.12;99959.74;111024;1271;21732;-81
2024/03/12 08:53:44;;;;;;;68.70;51.90;;;;;;;10.21;66.96;99960.95;111089;1271;21756;-83
2024/03/12 08:56:14;;;;;;;65.30;51.60;;;;;;;10.23;67.22;99960.65;110659;1275;22352;-84
2024/03/12 08:58:43;;;;;;;63.10;52.20;;;;;;;10.26;66.99;99961.70;110683;1275;21817;-83
2024/03/12 09:01:13;;;;;;;67.10;54.40;;;;;;;10.29;67.05;99962.02;110723;1275;21754;-85
2024/03/12 09:03:46;;;;;;;70.20;53.80;;;;;;;10.29;67.29;99961.25;110700;1275;21866;-82
2024/03/12 09:06:18;;;;;;;69.10;53.80;;;;;;;10.36;67.01;99964.64;110669;1275;21941;-83
2024/03/12 09:08:49;;;;;;;;;;;;;;;10.32;67.23;99965.95;110673;1275;22024;-83
2024/03/12 09:11:20;;;;;;;81.80;63.00;;;;;;;10.23;67.32;99967.17;110701;1275;21834;-82
2024/03/12 09:13:50;;;;;;;73.40;56.20;;;;;;;10.31;67.12;99968.34;110844;1271;21801;-81
2024/03/12 09:16:19;;;;;;;67.30;50.60;;;;;;;10.34;66.86;99971.12;111068;1271;21827;-81
2024/03/12 09:18:49;;;;;;;56.70;44.60;;;;;;;10.34;66.93;99967.20;111112;1271;21798;-81
2024/03/12 09:21:20;;;;;;;61.20;43.60;;;;;;;10.37;66.82;99973.16;111043;1271;21737;-82
2024/03/12 09:23:49;;;;;;;57.40;42.90;;;;;;;10.37;66.31;99974.41;110658;1275;21833;-82
2024/03/12 09:26:29;;;;;;;73.10;57.20;;;;;;;10.34;66.30;99974.81;110590;1271;21928;-83
2024/03/12 09:28:59;;;;;;;70.60;51.50;;;;;;;10.36;66.44;99972.89;110717;1275;21819;-82
2024/03/12 09:31:31;;;;;;;64.90;50.20;;;;;;;10.36;66.48;99976.90;110539;1275;21823;-81
2024/03/12 09:34:01;;;;;;;61.30;47.60;;;;;;;10.35;66.42;99977.21;110413;1280;22463;-81
2024/03/12 09:36:32;;;;;;;70.80;55.10;;;;;;;10.36;66.82;99979.77;110452;1280;21835;-80
2024/03/12 09:39:02;;;;;;;68.00;51.40;;;;;;;10.47;66.68;99981.23;109975;1286;21770;-80
2024/03/12 09:41:31;;;;;;;66.40;52.60;;;;;;;10.51;66.25;99985.17;110039;1283;21837;-80
2024/03/12 09:44:01;;;;;;;71.40;58.70;;;;;;;10.48;66.09;99985.02;110131;1282;22323;-80
2024/03/12 09:46:36;;;;;;;77.20;60.40;;;;;;;10.43;66.39;99986.59;110151;1283;21796;-80
2024/03/12 09:49:07;;;;;;;74.70;59.50;;;;;;;10.43;66.55;99988.33;110144;1283;21859;-78
2024/03/12 09:51:54;;;;;;;76.90;59.40;;;;;;;10.47;66.65;99988.96;110221;1277;21942;-84
2024/03/12 09:54:25;;;;;;;73.30;59.50;;;;;;;10.52;66.45;99992.31;110611;1278;21800;-81
2024/03/12 09:56:58;;;;;;;79.40;58.80;;;;;;;10.56;66.40;99995.88;110759;1271;21904;-81
2024/03/12 09:59:28;;;;;;;74.30;62.00;;;;;;;10.61;66.33;99995.30;110551;1278;21903;-81
2024/03/12 10:02:01;;;;;;;64.00;51.90;;;;;;;10.64;66.12;99997.39;110336;1277;21899;-82
2024/03/12 10:04:35;;;;;;;70.30;53.40;;;;;;;10.58;65.92;99996.27;110439;1278;21892;-81
2024/03/12 10:07:05;;;;;;;66.30;54.70;;;;;;;10.54;66.13;99996.00;110143;1282;21891;-80
2024/03/12 10:09:37;;;;;;;72.50;59.90;;;;;;;10.53;66.10;99997.98;110103;1282;21948;-80
2024/03/12 10:12:09;;;;;;;69.10;54.10;;;;;;;10.49;66.10;99999.36;110100;1282;22314;-80
2024/03/12 10:14:44;;;;;;;74.10;56.30;;;;;;;10.47;66.30;99997.56;110145;1282;21874;-80
2024/03/12 10:17:15;;;;;;;75.70;58.30;;;;;;;10.51;66.56;99998.67;110234;1276;21887;-79
2024/03/12 10:19:48;;;;;;;69.20;54.40;;;;;;;10.56;66.37;99996.70;110637;1276;21677;-81
2024/03/12 10:22:21;;;;;;;62.90;52.60;;;;;;;10.60;66.20;99998.00;110680;1276;21858;-80
2024/03/12 10:25:09;;;;;;;70.10;56.10;;;;;;;10.64;66.30;100001.23;110857;1271;21787;-80
2024/03/12 10:27:58;;;;;;;71.50;51.40;;;;;;;10.67;66.03;99999.08;110984;1271;22245;-80
2024/03/12 10:30:36;;;;;;;58.90;49.00;;;;;;;10.64;66.14;100000.68;111027;1271;21813;-80
2024/03/12 10:33:18;;;;;;;52.20;43.90;;;;;;;10.62;66.17;100004.23;110976;1271;21845;-82
2024/03/12 10:35:50;;;;;;;57.70;47.30;;;;;;;10.60;65.85;100006.10;110881;1270;21854;-82
2024/03/12 10:38:25;;;;;;;;;;;;;;;10.59;66.24;100008.69;111036;1271;21831;-83
2024/03/12 10:41:20;;;;;;;58.50;48.70;;;;;;;10.48;66.58;100011.75;111078;1271;22310;-81
2024/03/12 10:44:11;;;;;;;55.50;46.10;;;;;;;10.55;66.45;100012.09;111024;1271;21829;-82
2024/03/12 10:47:12;;;;;;;54.90;46.50;;;;;;;10.59;66.52;100011.13;111045;1271;22317;-84
2024/03/12 10:50:12;;;;;;;61.10;49.30;;;;;;;10.68;66.48;100012.54;111053;1271;21918;-83
2024/03/12 10:53:37;;;;;;;57.30;48.80;;;;;;;10.74;66.19;100015.97;111102;1270;21915;-82
2024/03/12 10:57:21;;;;;;;;;;;;;;;;;;;;;
2024/03/12 11:00:42;;;;;;;;;;;;;;;;;;;;;
2024/03/12 11:03:34;;;;;;;57.70;46.00;;;;;;;10.62;66.07;100019.52;110587;1276;21849;-81
2024/03/12 11:06:53;;;;;;;56.60;47.60;;;;;;;10.63;65.92;100020.83;110567;1276;21735;-81
2024/03/12 11:10:01;;;;;;;56.30;45.50;;;;;;;10.63;65.91;100018.92;110596;1276;21962;-82
2024/03/12 11:13:09;;;;;;;57.60;47.20;;;;;;;10.65;66.06;100014.91;110627;1276;21822;-81
2024/03/12 11:19:47;;;;;;;55.90;47.50;;;;;;;10.65;66.14;100022.67;110056;1284;22272;-82
2024/03/12 11:22:43;;;;;;;55.30;46.40;;;;;;;10.67;66.14;100019.98;110050;1284;21996;-79
2024/03/12 11:25:43;;;;;;;50.30;44.90;;;;;;;10.67;65.95;100016.13;110105;1284;21822;-80
2024/03/12 11:28:28;;;;;;;52.00;45.60;;;;;;;10.67;66.11;100020.40;110041;1284;21851;-80
2024/03/12 11:31:22;;;;;;;54.50;45.30;;;;;;;10.67;66.13;100022.30;110064;1284;22236;-81
2024/03/12 11:34:05;;;;;;;53.80;44.50;;;;;;;10.74;65.76;100023.67;110111;1284;21860;-81
2024/03/12 11:36:39;;;;;;;49.00;41.90;;;;;;;10.79;65.47;100023.89;110045;1284;21826;-81
2024/03/12 11:39:17;;;;;;;46.10;40.50;;;;;;;10.83;65.37;100023.58;109997;1286;22786;-78
2024/03/12 11:42:01;;;;;;;48.90;42.70;;;;;;;10.75;65.15;100024.66;110074;1277;21861;-79
2024/03/12 11:44:54;;;;;;;51.60;44.30;;;;;;;10.75;65.27;100027.48;110368;1277;21772;-77
2024/03/12 11:47:34;;;;;;;59.20;45.50;;;;;;;10.85;65.53;100028.14;110535;1276;21903;-79
2024/03/12 11:50:35;;;;;;;61.00;43.50;;;;;;;10.89;65.09;100027.99;110276;1280;21819;-81
2024/03/12 11:53:25;;;;;;;48.60;41.50;;;;;;;10.93;64.90;100023.15;109980;1286;21862;-79
2024/03/12 11:56:09;;;;;;;44.20;39.10;;;;;;;10.94;64.73;100026.37;109990;1286;21865;-78
2024/03/12 11:59:05;;;;;;;43.90;39.10;;;;;;;10.97;64.70;100027.94;110194;1277;21832;-81
2024/03/12 12:02:09;;;;;;;48.30;36.20;;;;;;;10.93;64.97;100031.55;109982;1286;21835;-77